sensor_id;sensor_type;location;lat;lon;timestamp;temperature;humidity
15916;DHT22;8057;47.830;-3.870;2023-12-22T00:02:55;12.20;99.90
15916;DHT22;8057;47.830;-3.870;2023-12-22T00:07:24;12.10;99.90
15916;DHT22;8057;47.830;-3.870;2023-12-22T00:11:52;12.10;99.90
15916;DHT22;8057;47.830;-3.870;2023-12-22T00:16:20;12.10;99.90
15916;DHT22;8057;47.830;-3.870;2023-12-22T00:20:47;12.20;99.90
15916;DHT22;8057;47.830;-3.870;2023-12-22T00:25:16;12.20;99.90
15916;DHT22;8057;47.830;-3.870;2023-12-22T00:29:44;12.30;99.90
15916;DHT22;8057;47.830;-3.870;2023-12-22T00:34:11;12.30;99.90
15916;DHT22;8057;47.830;-3.870;2023-12-22T00:38:38;12.20;99.90
15916;DHT22;8057;47.830;-3.870;2023-12-22T00:43:07;12.20;99.90
15916;DHT22;8057;47.830;-3.870;2023-12-22T00:47:37;12.20;99.90
15916;DHT22;8057;47.830;-3.870;2023-12-22T00:52:05;12.20;99.90
15916;DHT22;8057;47.830;-3.870;2023-12-22T00:56:32;12.30;99.90
15916;DHT22;8057;47.830;-3.870;2023-12-22T01:01:01;12.30;99.90
15916;DHT22;8057;47.830;-3.870;2023-12-22T01:05:29;12.30;99.90
15916;DHT22;8057;47.830;-3.870;2023-12-22T01:09:57;12.30;99.90
15916;DHT22;8057;47.830;-3.870;2023-12-22T01:14:27;12.30;99.90
15916;DHT22;8057;47.830;-3.870;2023-12-22T01:18:56;12.20;99.90
15916;DHT22;8057;47.830;-3.870;2023-12-22T01:23:24;12.20;99.90
15916;DHT22;8057;47.830;-3.870;2023-12-22T01:27:51;12.20;99.90
15916;DHT22;8057;47.830;-3.870;2023-12-22T01:32:19;12.20;99.90
15916;DHT22;8057;47.830;-3.870;2023-12-22T01:36:48;12.20;99.90
15916;DHT22;8057;47.830;-3.870;2023-12-22T01:41:16;12.10;99.90
15916;DHT22;8057;47.830;-3.870;2023-12-22T01:45:44;12.20;99.90
15916;DHT22;8057;47.830;-3.870;2023-12-22T01:50:12;12.20;99.90
15916;DHT22;8057;47.830;-3.870;2023-12-22T01:54:42;12.20;99.90
15916;DHT22;8057;47.830;-3.870;2023-12-22T01:59:10;12.20;99.90
15916;DHT22;8057;47.830;-3.870;2023-12-22T02:03:39;12.10;99.90
15916;DHT22;8057;47.830;-3.870;2023-12-22T02:08:06;12.00;99.90
15916;DHT22;8057;47.830;-3.870;2023-12-22T02:12:36;12.10;99.90
15916;DHT22;8057;47.830;-3.870;2023-12-22T02:17:10;12.20;99.90
15916;DHT22;8057;47.830;-3.870;2023-12-22T02:21:59;12.30;99.90
15916;DHT22;8057;47.830;-3.870;2023-12-22T02:26:38;12.30;99.90
15916;DHT22;8057;47.830;-3.870;2023-12-22T02:31:16;12.30;99.90
15916;DHT22;8057;47.830;-3.870;2023-12-22T02:35:46;12.30;99.90
15916;DHT22;8057;47.830;-3.870;2023-12-22T02:40:16;12.30;99.90
15916;DHT22;8057;47.830;-3.870;2023-12-22T02:44:46;12.20;99.90
15916;DHT22;8057;47.830;-3.870;2023-12-22T02:49:13;12.20;99.90
15916;DHT22;8057;47.830;-3.870;2023-12-22T02:53:40;12.20;99.90
15916;DHT22;8057;47.830;-3.870;2023-12-22T02:58:08;12.20;99.90
15916;DHT22;8057;47.830;-3.870;2023-12-22T03:02:37;12.20;99.90
15916;DHT22;8057;47.830;-3.870;2023-12-22T03:07:04;12.20;99.90
15916;DHT22;8057;47.830;-3.870;2023-12-22T03:11:32;12.20;99.90
15916;DHT22;8057;47.830;-3.870;2023-12-22T03:15:59;12.20;99.90
15916;DHT22;8057;47.830;-3.870;2023-12-22T03:20:28;12.20;99.90
15916;DHT22;8057;47.830;-3.870;2023-12-22T03:24:55;12.10;99.90
15916;DHT22;8057;47.830;-3.870;2023-12-22T03:29:23;12.00;99.90
15916;DHT22;8057;47.830;-3.870;2023-12-22T03:33:50;12.10;99.90
15916;DHT22;8057;47.830;-3.870;2023-12-22T03:38:19;12.10;99.90
15916;DHT22;8057;47.830;-3.870;2023-12-22T03:42:46;12.00;99.90
15916;DHT22;8057;47.830;-3.870;2023-12-22T03:47:14;12.10;99.90
15916;DHT22;8057;47.830;-3.870;2023-12-22T03:51:41;12.10;99.90
15916;DHT22;8057;47.830;-3.870;2023-12-22T03:56:10;12.10;99.90
15916;DHT22;8057;47.830;-3.870;2023-12-22T04:00:37;12.10;99.90
15916;DHT22;8057;47.830;-3.870;2023-12-22T04:05:05;12.00;99.90
15916;DHT22;8057;47.830;-3.870;2023-12-22T04:09:33;12.00;99.90
15916;DHT22;8057;47.830;-3.870;2023-12-22T04:14:02;12.00;99.90
15916;DHT22;8057;47.830;-3.870;2023-12-22T04:18:29;12.00;99.90
15916;DHT22;8057;47.830;-3.870;2023-12-22T04:22:57;12.00;99.90
15916;DHT22;8057;47.830;-3.870;2023-12-22T04:27:24;12.10;99.90
15916;DHT22;8057;47.830;-3.870;2023-12-22T04:31:53;12.10;99.90
15916;DHT22;8057;47.830;-3.870;2023-12-22T04:36:21;12.00;99.90
15916;DHT22;8057;47.830;-3.870;2023-12-22T04:40:48;11.90;99.90
15916;DHT22;8057;47.830;-3.870;2023-12-22T04:45:16;11.90;99.90
15916;DHT22;8057;47.830;-3.870;2023-12-22T04:49:45;12.00;99.90
15916;DHT22;8057;47.830;-3.870;2023-12-22T04:54:13;12.00;99.90
15916;DHT22;8057;47.830;-3.870;2023-12-22T04:58:41;12.00;99.90
15916;DHT22;8057;47.830;-3.870;2023-12-22T05:03:08;11.90;99.90
15916;DHT22;8057;47.830;-3.870;2023-12-22T05:07:37;11.90;99.90
15916;DHT22;8057;47.830;-3.870;2023-12-22T05:12:06;11.90;99.90
15916;DHT22;8057;47.830;-3.870;2023-12-22T05:16:34;11.80;99.90
15916;DHT22;8057;47.830;-3.870;2023-12-22T05:21:02;11.80;99.90
15916;DHT22;8057;47.830;-3.870;2023-12-22T05:25:31;11.70;99.90
15916;DHT22;8057;47.830;-3.870;2023-12-22T05:29:59;11.60;99.90
15916;DHT22;8057;47.830;-3.870;2023-12-22T05:34:29;11.60;99.90
15916;DHT22;8057;47.830;-3.870;2023-12-22T05:38:57;11.60;99.90
15916;DHT22;8057;47.830;-3.870;2023-12-22T05:43:26;11.60;99.90
15916;DHT22;8057;47.830;-3.870;2023-12-22T05:47:53;11.60;99.90
15916;DHT22;8057;47.830;-3.870;2023-12-22T05:52:20;11.60;99.90
15916;DHT22;8057;47.830;-3.870;2023-12-22T05:56:48;11.60;99.90
15916;DHT22;8057;47.830;-3.870;2023-12-22T06:01:23;11.70;99.90
15916;DHT22;8057;47.830;-3.870;2023-12-22T06:05:51;11.70;99.90
15916;DHT22;8057;47.830;-3.870;2023-12-22T06:10:18;11.70;99.90
15916;DHT22;8057;47.830;-3.870;2023-12-22T06:14:45;11.70;99.90
15916;DHT22;8057;47.830;-3.870;2023-12-22T06:19:14;11.80;99.90
15916;DHT22;8057;47.830;-3.870;2023-12-22T06:23:43;11.80;99.90
15916;DHT22;8057;47.830;-3.870;2023-12-22T06:28:10;11.70;99.90
15916;DHT22;8057;47.830;-3.870;2023-12-22T06:32:38;11.70;99.90
15916;DHT22;8057;47.830;-3.870;2023-12-22T06:37:08;11.70;99.90
15916;DHT22;8057;47.830;-3.870;2023-12-22T06:41:37;11.80;99.90
15916;DHT22;8057;47.830;-3.870;2023-12-22T06:46:14;11.80;99.90
15916;DHT22;8057;47.830;-3.870;2023-12-22T06:50:42;11.80;99.90
15916;DHT22;8057;47.830;-3.870;2023-12-22T06:55:13;11.80;99.90
15916;DHT22;8057;47.830;-3.870;2023-12-22T06:59:40;11.80;99.90
15916;DHT22;8057;47.830;-3.870;2023-12-22T07:04:09;11.80;99.90
15916;DHT22;8057;47.830;-3.870;2023-12-22T07:08:36;11.80;99.90
15916;DHT22;8057;47.830;-3.870;2023-12-22T07:13:06;11.90;99.90
15916;DHT22;8057;47.830;-3.870;2023-12-22T07:17:33;11.80;99.90
15916;DHT22;8057;47.830;-3.870;2023-12-22T07:22:01;11.80;99.90
15916;DHT22;8057;47.830;-3.870;2023-12-22T07:26:30;11.90;99.90
15916;DHT22;8057;47.830;-3.870;2023-12-22T07:30:58;11.90;99.90
15916;DHT22;8057;47.830;-3.870;2023-12-22T07:35:26;11.90;99.90
15916;DHT22;8057;47.830;-3.870;2023-12-22T07:39:54;11.90;99.90
15916;DHT22;8057;47.830;-3.870;2023-12-22T07:44:23;11.90;99.90
15916;DHT22;8057;47.830;-3.870;2023-12-22T07:48:52;11.80;99.90
15916;DHT22;8057;47.830;-3.870;2023-12-22T07:53:20;11.90;99.90
15916;DHT22;8057;47.830;-3.870;2023-12-22T07:57:48;11.80;99.90
15916;DHT22;8057;47.830;-3.870;2023-12-22T08:02:16;11.80;99.90
15916;DHT22;8057;47.830;-3.870;2023-12-22T08:06:45;11.80;99.90
15916;DHT22;8057;47.830;-3.870;2023-12-22T08:11:13;11.80;99.90
15916;DHT22;8057;47.830;-3.870;2023-12-22T08:15:40;11.90;99.90
15916;DHT22;8057;47.830;-3.870;2023-12-22T08:20:09;11.90;99.90
15916;DHT22;8057;47.830;-3.870;2023-12-22T08:24:47;11.90;99.90
15916;DHT22;8057;47.830;-3.870;2023-12-22T08:29:15;12.00;99.90
15916;DHT22;8057;47.830;-3.870;2023-12-22T08:33:44;11.90;99.90
15916;DHT22;8057;47.830;-3.870;2023-12-22T08:38:12;11.90;99.90
15916;DHT22;8057;47.830;-3.870;2023-12-22T08:42:42;11.90;99.90
15916;DHT22;8057;47.830;-3.870;2023-12-22T08:47:10;12.00;99.90
15916;DHT22;8057;47.830;-3.870;2023-12-22T08:51:37;12.00;99.90
15916;DHT22;8057;47.830;-3.870;2023-12-22T08:56:05;12.00;99.90
15916;DHT22;8057;47.830;-3.870;2023-12-22T09:00:34;11.90;99.90
15916;DHT22;8057;47.830;-3.870;2023-12-22T09:05:02;11.90;99.90
15916;DHT22;8057;47.830;-3.870;2023-12-22T09:09:31;11.90;99.90
15916;DHT22;8057;47.830;-3.870;2023-12-22T09:14:01;11.80;99.90
15916;DHT22;8057;47.830;-3.870;2023-12-22T09:18:30;11.80;99.90
15916;DHT22;8057;47.830;-3.870;2023-12-22T09:22:58;11.80;99.90
15916;DHT22;8057;47.830;-3.870;2023-12-22T09:27:25;11.90;99.90
15916;DHT22;8057;47.830;-3.870;2023-12-22T09:31:56;11.90;99.90
15916;DHT22;8057;47.830;-3.870;2023-12-22T09:36:26;11.80;99.90
15916;DHT22;8057;47.830;-3.870;2023-12-22T09:40:54;11.90;99.90
15916;DHT22;8057;47.830;-3.870;2023-12-22T09:45:22;11.90;99.90
15916;DHT22;8057;47.830;-3.870;2023-12-22T09:49:51;12.00;99.90
15916;DHT22;8057;47.830;-3.870;2023-12-22T09:54:22;12.10;99.90
15916;DHT22;8057;47.830;-3.870;2023-12-22T09:58:52;12.10;99.90
15916;DHT22;8057;47.830;-3.870;2023-12-22T10:03:21;12.20;99.90
15916;DHT22;8057;47.830;-3.870;2023-12-22T10:07:53;12.20;99.90
15916;DHT22;8057;47.830;-3.870;2023-12-22T10:12:23;12.20;99.90
15916;DHT22;8057;47.830;-3.870;2023-12-22T10:16:52;12.20;99.90
15916;DHT22;8057;47.830;-3.870;2023-12-22T10:21:22;12.10;99.90
15916;DHT22;8057;47.830;-3.870;2023-12-22T10:25:50;12.10;99.90
15916;DHT22;8057;47.830;-3.870;2023-12-22T10:30:20;12.20;99.90
15916;DHT22;8057;47.830;-3.870;2023-12-22T10:34:48;12.30;99.90
15916;DHT22;8057;47.830;-3.870;2023-12-22T10:39:16;12.30;99.90
15916;DHT22;8057;47.830;-3.870;2023-12-22T10:43:43;12.40;99.90
15916;DHT22;8057;47.830;-3.870;2023-12-22T10:48:14;12.40;99.90
15916;DHT22;8057;47.830;-3.870;2023-12-22T10:52:41;12.50;99.90
15916;DHT22;8057;47.830;-3.870;2023-12-22T10:57:18;12.40;99.90
15916;DHT22;8057;47.830;-3.870;2023-12-22T11:01:45;12.50;99.90
15916;DHT22;8057;47.830;-3.870;2023-12-22T11:06:17;12.60;99.90
15916;DHT22;8057;47.830;-3.870;2023-12-22T11:10:48;12.60;99.90
15916;DHT22;8057;47.830;-3.870;2023-12-22T11:15:18;12.60;99.90
15916;DHT22;8057;47.830;-3.870;2023-12-22T11:19:47;12.60;99.90
15916;DHT22;8057;47.830;-3.870;2023-12-22T11:24:19;12.70;99.90
15916;DHT22;8057;47.830;-3.870;2023-12-22T11:28:47;12.60;99.90
15916;DHT22;8057;47.830;-3.870;2023-12-22T11:33:17;12.50;99.90
15916;DHT22;8057;47.830;-3.870;2023-12-22T11:37:47;12.60;99.90
15916;DHT22;8057;47.830;-3.870;2023-12-22T11:42:21;12.60;99.90
15916;DHT22;8057;47.830;-3.870;2023-12-22T11:47:03;12.50;99.90
15916;DHT22;8057;47.830;-3.870;2023-12-22T11:51:32;12.50;99.90
15916;DHT22;8057;47.830;-3.870;2023-12-22T11:56:03;12.50;99.90
15916;DHT22;8057;47.830;-3.870;2023-12-22T12:00:40;12.50;99.90
15916;DHT22;8057;47.830;-3.870;2023-12-22T12:05:08;12.40;99.90
15916;DHT22;8057;47.830;-3.870;2023-12-22T12:09:45;12.40;99.90
15916;DHT22;8057;47.830;-3.870;2023-12-22T12:14:14;12.30;99.90
15916;DHT22;8057;47.830;-3.870;2023-12-22T12:18:46;12.30;99.90
15916;DHT22;8057;47.830;-3.870;2023-12-22T12:23:15;12.30;99.90
15916;DHT22;8057;47.830;-3.870;2023-12-22T12:27:43;12.40;99.90
15916;DHT22;8057;47.830;-3.870;2023-12-22T12:32:14;12.40;99.90
15916;DHT22;8057;47.830;-3.870;2023-12-22T12:36:43;12.40;99.90
15916;DHT22;8057;47.830;-3.870;2023-12-22T12:41:11;12.50;99.90
15916;DHT22;8057;47.830;-3.870;2023-12-22T12:45:40;12.80;99.90
15916;DHT22;8057;47.830;-3.870;2023-12-22T12:50:08;12.80;99.90
15916;DHT22;8057;47.830;-3.870;2023-12-22T12:54:39;12.70;99.90
15916;DHT22;8057;47.830;-3.870;2023-12-22T12:59:08;12.50;99.90
15916;DHT22;8057;47.830;-3.870;2023-12-22T13:03:51;12.50;99.90
15916;DHT22;8057;47.830;-3.870;2023-12-22T13:08:19;12.60;99.90
15916;DHT22;8057;47.830;-3.870;2023-12-22T13:13:01;12.70;99.90
15916;DHT22;8057;47.830;-3.870;2023-12-22T13:17:29;13.00;99.90
15916;DHT22;8057;47.830;-3.870;2023-12-22T13:21:59;13.00;99.90
15916;DHT22;8057;47.830;-3.870;2023-12-22T13:26:27;12.80;99.90
15916;DHT22;8057;47.830;-3.870;2023-12-22T13:30:57;12.70;99.90
15916;DHT22;8057;47.830;-3.870;2023-12-22T13:35:25;12.70;99.90
15916;DHT22;8057;47.830;-3.870;2023-12-22T13:39:54;12.80;99.90
15916;DHT22;8057;47.830;-3.870;2023-12-22T13:44:24;12.80;99.90
15916;DHT22;8057;47.830;-3.870;2023-12-22T13:49:01;12.70;99.90
15916;DHT22;8057;47.830;-3.870;2023-12-22T13:53:29;12.80;99.90
15916;DHT22;8057;47.830;-3.870;2023-12-22T13:58:00;12.90;99.90
15916;DHT22;8057;47.830;-3.870;2023-12-22T14:02:30;13.00;99.90
15916;DHT22;8057;47.830;-3.870;2023-12-22T14:07:01;13.00;99.90
15916;DHT22;8057;47.830;-3.870;2023-12-22T14:11:29;13.00;99.90
15916;DHT22;8057;47.830;-3.870;2023-12-22T14:15:58;13.10;99.90
15916;DHT22;8057;47.830;-3.870;2023-12-22T14:20:25;13.20;99.90
15916;DHT22;8057;47.830;-3.870;2023-12-22T14:24:54;13.30;99.90
15916;DHT22;8057;47.830;-3.870;2023-12-22T14:29:23;13.30;99.90
15916;DHT22;8057;47.830;-3.870;2023-12-22T14:33:51;13.20;99.90
15916;DHT22;8057;47.830;-3.870;2023-12-22T14:38:19;13.20;99.90
15916;DHT22;8057;47.830;-3.870;2023-12-22T14:42:48;13.00;99.90
15916;DHT22;8057;47.830;-3.870;2023-12-22T14:47:16;12.90;99.90
15916;DHT22;8057;47.830;-3.870;2023-12-22T14:51:44;12.60;99.90
15916;DHT22;8057;47.830;-3.870;2023-12-22T14:56:13;12.50;99.90
15916;DHT22;8057;47.830;-3.870;2023-12-22T15:00:42;12.40;99.90
15916;DHT22;8057;47.830;-3.870;2023-12-22T15:05:10;12.30;99.90
15916;DHT22;8057;47.830;-3.870;2023-12-22T15:09:39;12.30;99.90
15916;DHT22;8057;47.830;-3.870;2023-12-22T15:14:07;12.10;99.90
15916;DHT22;8057;47.830;-3.870;2023-12-22T15:18:36;12.20;99.90
15916;DHT22;8057;47.830;-3.870;2023-12-22T15:23:04;12.30;99.90
15916;DHT22;8057;47.830;-3.870;2023-12-22T15:27:31;12.40;99.90
15916;DHT22;8057;47.830;-3.870;2023-12-22T15:31:59;12.40;99.90
15916;DHT22;8057;47.830;-3.870;2023-12-22T15:36:28;12.40;99.90
15916;DHT22;8057;47.830;-3.870;2023-12-22T15:41:00;12.30;99.90
15916;DHT22;8057;47.830;-3.870;2023-12-22T15:45:28;12.20;99.90
15916;DHT22;8057;47.830;-3.870;2023-12-22T15:49:57;12.10;99.90
15916;DHT22;8057;47.830;-3.870;2023-12-22T15:54:26;12.10;99.90
15916;DHT22;8057;47.830;-3.870;2023-12-22T15:58:53;12.00;99.90
15916;DHT22;8057;47.830;-3.870;2023-12-22T16:03:22;11.90;99.90
15916;DHT22;8057;47.830;-3.870;2023-12-22T16:07:50;11.90;99.90
15916;DHT22;8057;47.830;-3.870;2023-12-22T16:12:19;11.80;99.90
15916;DHT22;8057;47.830;-3.870;2023-12-22T16:16:47;11.60;99.90
15916;DHT22;8057;47.830;-3.870;2023-12-22T16:21:15;11.50;99.90
15916;DHT22;8057;47.830;-3.870;2023-12-22T16:25:43;11.40;99.90
15916;DHT22;8057;47.830;-3.870;2023-12-22T16:30:12;11.30;99.90
15916;DHT22;8057;47.830;-3.870;2023-12-22T16:34:42;11.10;99.90
15916;DHT22;8057;47.830;-3.870;2023-12-22T16:39:11;11.00;99.90
15916;DHT22;8057;47.830;-3.870;2023-12-22T16:43:40;11.00;99.90
15916;DHT22;8057;47.830;-3.870;2023-12-22T16:48:11;10.90;99.90
15916;DHT22;8057;47.830;-3.870;2023-12-22T16:52:39;11.00;99.90
15916;DHT22;8057;47.830;-3.870;2023-12-22T16:57:07;11.00;99.90
15916;DHT22;8057;47.830;-3.870;2023-12-22T17:01:34;10.90;99.90
15916;DHT22;8057;47.830;-3.870;2023-12-22T17:06:09;10.80;99.90
15916;DHT22;8057;47.830;-3.870;2023-12-22T17:10:37;10.80;99.90
15916;DHT22;8057;47.830;-3.870;2023-12-22T17:15:06;10.90;99.90
15916;DHT22;8057;47.830;-3.870;2023-12-22T17:19:35;10.90;99.90
15916;DHT22;8057;47.830;-3.870;2023-12-22T17:24:06;11.00;99.90
15916;DHT22;8057;47.830;-3.870;2023-12-22T17:28:33;11.00;99.90
15916;DHT22;8057;47.830;-3.870;2023-12-22T17:33:01;11.00;99.90
15916;DHT22;8057;47.830;-3.870;2023-12-22T17:37:29;10.90;99.90
15916;DHT22;8057;47.830;-3.870;2023-12-22T17:41:58;10.90;99.90
15916;DHT22;8057;47.830;-3.870;2023-12-22T17:46:26;10.90;99.90
15916;DHT22;8057;47.830;-3.870;2023-12-22T17:50:54;10.90;99.90
15916;DHT22;8057;47.830;-3.870;2023-12-22T17:55:22;11.00;99.90
15916;DHT22;8057;47.830;-3.870;2023-12-22T17:59:51;11.00;99.90
15916;DHT22;8057;47.830;-3.870;2023-12-22T18:04:19;11.10;99.90
15916;DHT22;8057;47.830;-3.870;2023-12-22T18:08:47;11.20;99.90
15916;DHT22;8057;47.830;-3.870;2023-12-22T18:13:15;11.20;99.90
15916;DHT22;8057;47.830;-3.870;2023-12-22T18:17:44;11.30;99.90
15916;DHT22;8057;47.830;-3.870;2023-12-22T18:22:12;11.30;99.90
15916;DHT22;8057;47.830;-3.870;2023-12-22T18:26:40;11.30;99.90
15916;DHT22;8057;47.830;-3.870;2023-12-22T18:31:08;11.40;99.90
15916;DHT22;8057;47.830;-3.870;2023-12-22T18:35:37;11.40;99.90
15916;DHT22;8057;47.830;-3.870;2023-12-22T18:40:05;11.40;99.90
15916;DHT22;8057;47.830;-3.870;2023-12-22T18:44:35;11.40;99.90
15916;DHT22;8057;47.830;-3.870;2023-12-22T18:49:04;11.30;99.90
15916;DHT22;8057;47.830;-3.870;2023-12-22T18:53:38;11.10;99.90
15916;DHT22;8057;47.830;-3.870;2023-12-22T18:58:06;11.10;99.90
15916;DHT22;8057;47.830;-3.870;2023-12-22T19:02:34;11.10;99.90
15916;DHT22;8057;47.830;-3.870;2023-12-22T19:07:21;11.10;99.90
15916;DHT22;8057;47.830;-3.870;2023-12-22T19:11:50;11.10;99.90
15916;DHT22;8057;47.830;-3.870;2023-12-22T19:16:17;11.10;99.90
15916;DHT22;8057;47.830;-3.870;2023-12-22T19:20:45;11.00;99.90
15916;DHT22;8057;47.830;-3.870;2023-12-22T19:25:13;11.00;99.90
15916;DHT22;8057;47.830;-3.870;2023-12-22T19:29:42;10.90;99.90
15916;DHT22;8057;47.830;-3.870;2023-12-22T19:34:10;10.90;99.90
15916;DHT22;8057;47.830;-3.870;2023-12-22T19:38:38;10.80;99.90
15916;DHT22;8057;47.830;-3.870;2023-12-22T19:43:06;10.80;99.90
15916;DHT22;8057;47.830;-3.870;2023-12-22T19:47:35;10.80;99.90
15916;DHT22;8057;47.830;-3.870;2023-12-22T19:52:04;10.90;99.90
15916;DHT22;8057;47.830;-3.870;2023-12-22T19:56:31;11.00;99.90
15916;DHT22;8057;47.830;-3.870;2023-12-22T20:00:59;11.00;99.90
15916;DHT22;8057;47.830;-3.870;2023-12-22T20:05:28;11.10;99.90
15916;DHT22;8057;47.830;-3.870;2023-12-22T20:09:56;11.10;99.90
15916;DHT22;8057;47.830;-3.870;2023-12-22T20:14:24;11.10;99.90
15916;DHT22;8057;47.830;-3.870;2023-12-22T20:18:52;11.10;99.90
15916;DHT22;8057;47.830;-3.870;2023-12-22T20:23:21;11.10;99.90
15916;DHT22;8057;47.830;-3.870;2023-12-22T20:27:49;11.00;99.90
15916;DHT22;8057;47.830;-3.870;2023-12-22T20:32:17;10.90;99.90
15916;DHT22;8057;47.830;-3.870;2023-12-22T20:36:45;10.90;99.90
15916;DHT22;8057;47.830;-3.870;2023-12-22T20:41:15;10.80;99.90
15916;DHT22;8057;47.830;-3.870;2023-12-22T20:45:43;10.80;99.90
15916;DHT22;8057;47.830;-3.870;2023-12-22T20:50:14;10.80;99.90
15916;DHT22;8057;47.830;-3.870;2023-12-22T20:54:42;10.80;99.90
15916;DHT22;8057;47.830;-3.870;2023-12-22T20:59:11;10.80;99.90
15916;DHT22;8057;47.830;-3.870;2023-12-22T21:03:38;10.70;99.90
15916;DHT22;8057;47.830;-3.870;2023-12-22T21:08:07;10.80;99.90
15916;DHT22;8057;47.830;-3.870;2023-12-22T21:12:35;10.80;99.90
15916;DHT22;8057;47.830;-3.870;2023-12-22T21:17:04;10.80;99.90
15916;DHT22;8057;47.830;-3.870;2023-12-22T21:21:32;10.90;99.90
15916;DHT22;8057;47.830;-3.870;2023-12-22T21:26:00;11.00;99.90
15916;DHT22;8057;47.830;-3.870;2023-12-22T21:30:27;11.00;99.90
15916;DHT22;8057;47.830;-3.870;2023-12-22T21:34:57;11.10;99.90
15916;DHT22;8057;47.830;-3.870;2023-12-22T21:39:24;11.00;99.90
15916;DHT22;8057;47.830;-3.870;2023-12-22T21:43:52;11.00;99.90
15916;DHT22;8057;47.830;-3.870;2023-12-22T21:48:20;11.00;99.90
15916;DHT22;8057;47.830;-3.870;2023-12-22T21:52:49;10.90;99.90
15916;DHT22;8057;47.830;-3.870;2023-12-22T21:57:18;10.80;99.90
15916;DHT22;8057;47.830;-3.870;2023-12-22T22:01:46;10.80;99.90
15916;DHT22;8057;47.830;-3.870;2023-12-22T22:06:13;11.00;99.90
15916;DHT22;8057;47.830;-3.870;2023-12-22T22:10:43;11.20;99.90
15916;DHT22;8057;47.830;-3.870;2023-12-22T22:15:11;11.20;99.90
15916;DHT22;8057;47.830;-3.870;2023-12-22T22:19:38;11.20;99.90
